This is the latest recevied weather packets stored in our database for station/object HB3YKO-13. If no packets are shown the sender has not sent any weather packets the latest 10 day(s).
| Time | Temp. | Humidity | Pressure | Rain* | Wind** | Luminosity | Snow |
|---|---|---|---|---|---|---|---|
| 1777666200 | -0.56° C | 56% | 0 hPa | 0 mm | - | - | - |
| 1777664995 | -1.11° C | 54% | 0 hPa | 0 mm | - | - | - |
| 1777664095 | 0.56° C | 52% | 0 hPa | 0 mm | - | - | - |
| 1777663495 | 0.56° C | 49% | 0 hPa | 0 mm | - | - | - |
| 1777663195 | 0.56° C | 49% | 0 hPa | 0 mm | - | - | - |
| 1777662895 | 1.11° C | 48% | 0 hPa | 0 mm | - | - | - |
| 1777662595 | 0.56° C | 46% | 0 hPa | 0 mm | - | - | - |
| 1777662295 | -3.33° C | 46% | 0 hPa | 0 mm | - | - | - |
| 1777661395 | 1.11° C | 44% | 0 hPa | 0 mm | - | - | - |
| 1777660495 | 1.67° C | 39% | 0 hPa | 0 mm | - | - | - |
| 1777660195 | 1.67° C | 38% | 0 hPa | 0 mm | - | - | - |
| 1777659295 | 2.22° C | 35% | 0 hPa | 0 mm | - | - | - |
| 1777658995 | 2.78° C | 34% | 0 hPa | 0 mm | - | - | - |
| 1777656295 | 5° C | 31% | 0 hPa | 0 mm | - | - | - |
| 1777655395 | 4.44° C | 31% | 0 hPa | 0 mm | - | - | - |
| 1777652695 | -17.78° C | 100% | 0 hPa | 0 mm | - | - | - |
| 1777650895 | -17.78° C | 100% | 0 hPa | 0 mm | - | - | - |
| 1777649995 | -17.78° C | 100% | 0 hPa | 0 mm | - | - | - |
| 1777649695 | -17.78° C | 100% | 0 hPa | 0 mm | - | - | - |
| 1777649395 | -17.78° C | 100% | 0 hPa | 0 mm | - | - | - |
| 1777649095 | -17.78° C | 100% | 0 hPa | 0 mm | - | - | - |
| 1777648795 | -17.78° C | 100% | 0 hPa | 0 mm | - | - | - |
| 1777648495 | -17.78° C | 100% | 0 hPa | 0 mm | - | - | - |
| 1777648195 | -17.78° C | 100% | 0 hPa | 0 mm | - | - | - |
| 1777647895 | -17.78° C | 100% | 0 hPa | 0 mm | - | - | - |
* Rain latest hour (hover to see other rain measurements)
** Current wind speed in m/s (hover to see current wind gust speed)